sensor_id;sensor_type;location;lat;lon;timestamp;pressure;altitude;pressure_sealevel;temperature;humidity
3844;BME280;1937;51.444;6.484;2024-01-27T00:01:45;67631.69;;;2.08;95.25
3844;BME280;1937;51.444;6.484;2024-01-27T00:04:12;67704.72;;;2.08;95.59
3844;BME280;1937;51.444;6.484;2024-01-27T00:06:38;67692.22;;;2.05;95.92
3844;BME280;1937;51.444;6.484;2024-01-27T00:09:06;67701.00;;;2.06;96.10
3844;BME280;1937;51.444;6.484;2024-01-27T00:11:33;67718.38;;;1.97;95.84
3844;BME280;1937;51.444;6.484;2024-01-27T00:14:00;67693.78;;;2.02;95.93
3844;BME280;1937;51.444;6.484;2024-01-27T00:16:27;67847.41;;;1.95;96.00
3844;BME280;1937;51.444;6.484;2024-01-27T00:18:54;67744.16;;;2.00;96.34
3844;BME280;1937;51.444;6.484;2024-01-27T00:21:20;67740.19;;;1.75;96.35
3844;BME280;1937;51.444;6.484;2024-01-27T00:23:47;67786.22;;;1.77;97.06
3844;BME280;1937;51.444;6.484;2024-01-27T00:26:15;67827.34;;;1.99;96.79
3844;BME280;1937;51.444;6.484;2024-01-27T00:28:42;67804.88;;;2.02;96.60
3844;BME280;1937;51.444;6.484;2024-01-27T00:31:08;67854.47;;;2.01;96.21
3844;BME280;1937;51.444;6.484;2024-01-27T00:33:35;67877.97;;;2.15;96.70
3844;BME280;1937;51.444;6.484;2024-01-27T00:36:02;67828.53;;;2.07;96.18
3844;BME280;1937;51.444;6.484;2024-01-27T00:38:29;67817.78;;;2.00;96.43
3844;BME280;1937;51.444;6.484;2024-01-27T00:40:56;67836.94;;;2.05;96.22
3844;BME280;1937;51.444;6.484;2024-01-27T00:43:24;67878.69;;;2.06;96.66
3844;BME280;1937;51.444;6.484;2024-01-27T00:45:50;67878.31;;;2.04;96.25
3844;BME280;1937;51.444;6.484;2024-01-27T00:48:17;67873.06;;;2.13;96.05
3844;BME280;1937;51.444;6.484;2024-01-27T00:50:44;67872.31;;;2.14;96.52
3844;BME280;1937;51.444;6.484;2024-01-27T00:53:11;67819.75;;;2.06;96.44
3844;BME280;1937;51.444;6.484;2024-01-27T00:55:38;67938.91;;;2.15;96.81
3844;BME280;1937;51.444;6.484;2024-01-27T00:58:04;67878.69;;;2.06;96.05
3844;BME280;1937;51.444;6.484;2024-01-27T01:00:32;67916.06;;;2.15;96.19
3844;BME280;1937;51.444;6.484;2024-01-27T01:02:59;67866.44;;;2.09;96.37
3844;BME280;1937;51.444;6.484;2024-01-27T01:05:26;67919.69;;;2.02;96.39
3844;BME280;1937;51.444;6.484;2024-01-27T01:07:53;67898.44;;;2.06;96.53
3844;BME280;1937;51.444;6.484;2024-01-27T01:10:19;67894.94;;;2.10;96.44
3844;BME280;1937;51.444;6.484;2024-01-27T01:12:46;67929.69;;;2.04;96.89
3844;BME280;1937;51.444;6.484;2024-01-27T01:15:13;67963.00;;;1.94;96.84
3844;BME280;1937;51.444;6.484;2024-01-27T01:17:42;67954.25;;;1.99;96.96
3844;BME280;1937;51.444;6.484;2024-01-27T01:20:09;68025.19;;;2.08;96.96
3844;BME280;1937;51.444;6.484;2024-01-27T01:22:36;68000.97;;;2.09;96.95
3844;BME280;1937;51.444;6.484;2024-01-27T01:25:03;67953.81;;;1.90;96.72
3844;BME280;1937;51.444;6.484;2024-01-27T01:27:28;68031.91;;;2.18;96.67
3844;BME280;1937;51.444;6.484;2024-01-27T01:29:55;68031.91;;;2.18;96.37
3844;BME280;1937;51.444;6.484;2024-01-27T01:32:22;67981.19;;;1.96;96.70
3844;BME280;1937;51.444;6.484;2024-01-27T01:34:50;68013.53;;;1.89;97.53
3844;BME280;1937;51.444;6.484;2024-01-27T01:37:17;68110.03;;;1.96;97.15
3844;BME280;1937;51.444;6.484;2024-01-27T01:39:43;68023.63;;;2.04;97.35
3844;BME280;1937;51.444;6.484;2024-01-27T01:42:10;68028.81;;;1.96;96.45
3844;BME280;1937;51.444;6.484;2024-01-27T01:44:37;68092.50;;;2.00;97.33
3844;BME280;1937;51.444;6.484;2024-01-27T01:47:04;68043.56;;;2.09;96.76
3844;BME280;1937;51.444;6.484;2024-01-27T01:49:31;68106.06;;;2.12;96.99
3844;BME280;1937;51.444;6.484;2024-01-27T01:51:59;68092.38;;;2.09;96.90
3844;BME280;1937;51.444;6.484;2024-01-27T01:54:25;68189.09;;;2.14;97.01
3844;BME280;1937;51.444;6.484;2024-01-27T01:56:54;68039.78;;;2.01;96.82
3844;BME280;1937;51.444;6.484;2024-01-27T01:59:21;68020.66;;;1.74;96.98
3844;BME280;1937;51.444;6.484;2024-01-27T02:01:48;68080.78;;;1.75;97.79
3844;BME280;1937;51.444;6.484;2024-01-27T02:04:14;68103.56;;;1.90;97.29
3844;BME280;1937;51.444;6.484;2024-01-27T02:06:41;68058.88;;;1.72;97.43
3844;BME280;1937;51.444;6.484;2024-01-27T02:09:09;68150.47;;;1.76;97.33
3844;BME280;1937;51.444;6.484;2024-01-27T02:11:36;68099.53;;;1.78;97.45
3844;BME280;1937;51.444;6.484;2024-01-27T02:14:03;68102.59;;;1.72;98.01
3844;BME280;1937;51.444;6.484;2024-01-27T02:16:30;68147.75;;;1.78;98.13
3844;BME280;1937;51.444;6.484;2024-01-27T02:18:57;68134.84;;;1.74;97.82
3844;BME280;1937;51.444;6.484;2024-01-27T02:21:23;68128.16;;;1.70;98.17
3844;BME280;1937;51.444;6.484;2024-01-27T02:23:50;68168.88;;;1.83;97.81
3844;BME280;1937;51.444;6.484;2024-01-27T02:26:18;68164.00;;;1.81;97.79
3844;BME280;1937;51.444;6.484;2024-01-27T02:28:45;68184.72;;;1.84;97.71
3844;BME280;1937;51.444;6.484;2024-01-27T02:31:11;68165.53;;;1.78;97.28
3844;BME280;1937;51.444;6.484;2024-01-27T02:33:38;68143.03;;;1.74;97.47
3844;BME280;1937;51.444;6.484;2024-01-27T02:36:05;68092.41;;;1.65;97.70
3844;BME280;1937;51.444;6.484;2024-01-27T02:38:32;68154.72;;;1.71;97.47
3844;BME280;1937;51.444;6.484;2024-01-27T02:40:58;68185.41;;;1.76;97.78
3844;BME280;1937;51.444;6.484;2024-01-27T02:43:26;68171.72;;;1.73;97.19
3844;BME280;1937;51.444;6.484;2024-01-27T02:45:53;68158.94;;;1.66;97.81
3844;BME280;1937;51.444;6.484;2024-01-27T02:48:20;68156.94;;;1.60;98.52
3844;BME280;1937;51.444;6.484;2024-01-27T02:50:47;68163.56;;;1.57;98.48
3844;BME280;1937;51.444;6.484;2024-01-27T02:53:13;68209.47;;;1.61;98.15
3844;BME280;1937;51.444;6.484;2024-01-27T02:55:40;68176.41;;;1.55;98.16
3844;BME280;1937;51.444;6.484;2024-01-27T02:58:07;68261.56;;;1.30;98.32
3844;BME280;1937;51.444;6.484;2024-01-27T03:00:35;68191.56;;;1.48;98.37
3844;BME280;1937;51.444;6.484;2024-01-27T03:03:02;68205.66;;;1.54;98.55
3844;BME280;1937;51.444;6.484;2024-01-27T03:05:28;68254.19;;;1.65;98.20
3844;BME280;1937;51.444;6.484;2024-01-27T03:07:55;68301.72;;;1.73;98.35
3844;BME280;1937;51.444;6.484;2024-01-27T03:10:22;68349.53;;;1.86;97.73
3844;BME280;1937;51.444;6.484;2024-01-27T03:12:49;68285.75;;;1.75;97.68
3844;BME280;1937;51.444;6.484;2024-01-27T03:15:18;68258.75;;;1.71;98.08
3844;BME280;1937;51.444;6.484;2024-01-27T03:17:46;68291.66;;;1.80;98.02
3844;BME280;1937;51.444;6.484;2024-01-27T03:20:12;68320.00;;;1.52;97.43
3844;BME280;1937;51.444;6.484;2024-01-27T03:22:39;68263.16;;;1.64;97.57
3844;BME280;1937;51.444;6.484;2024-01-27T03:25:07;68218.41;;;1.60;97.55
3844;BME280;1937;51.444;6.484;2024-01-27T03:27:34;68257.06;;;1.61;98.16
3844;BME280;1937;51.444;6.484;2024-01-27T03:30:01;68325.31;;;1.56;98.05
3844;BME280;1937;51.444;6.484;2024-01-27T03:32:29;68301.56;;;1.45;98.52
3844;BME280;1937;51.444;6.484;2024-01-27T03:34:58;68275.78;;;1.57;97.94
3844;BME280;1937;51.444;6.484;2024-01-27T03:37:25;68249.56;;;1.52;97.85
3844;BME280;1937;51.444;6.484;2024-01-27T03:39:51;68268.91;;;1.56;97.83
3844;BME280;1937;51.444;6.484;2024-01-27T03:42:18;68284.66;;;1.50;98.30
3844;BME280;1937;51.444;6.484;2024-01-27T03:44:44;68282.72;;;1.35;97.84
3844;BME280;1937;51.444;6.484;2024-01-27T03:47:11;68319.16;;;1.47;98.63
3844;BME280;1937;51.444;6.484;2024-01-27T03:49:38;68259.72;;;1.37;98.26
3844;BME280;1937;51.444;6.484;2024-01-27T03:52:06;68271.88;;;1.28;98.96
3844;BME280;1937;51.444;6.484;2024-01-27T03:54:32;68266.81;;;1.28;98.71
3844;BME280;1937;51.444;6.484;2024-01-27T03:56:59;68248.81;;;1.23;98.62
3844;BME280;1937;51.444;6.484;2024-01-27T03:59:26;68280.41;;;1.24;98.80
3844;BME280;1937;51.444;6.484;2024-01-27T04:01:52;68337.22;;;1.28;98.59
3844;BME280;1937;51.444;6.484;2024-01-27T04:04:19;68345.22;;;1.15;98.79
3844;BME280;1937;51.444;6.484;2024-01-27T04:06:46;68275.69;;;1.05;98.61
3844;BME280;1937;51.444;6.484;2024-01-27T04:09:14;68284.53;;;1.13;99.03
3844;BME280;1937;51.444;6.484;2024-01-27T04:11:41;68379.28;;;1.09;98.82
3844;BME280;1937;51.444;6.484;2024-01-27T04:14:07;68278.97;;;1.04;98.91
3844;BME280;1937;51.444;6.484;2024-01-27T04:16:34;68342.84;;;1.13;98.80
3844;BME280;1937;51.444;6.484;2024-01-27T04:19:01;68405.09;;;1.27;98.72
3844;BME280;1937;51.444;6.484;2024-01-27T04:21:29;68350.66;;;1.26;98.78
3844;BME280;1937;51.444;6.484;2024-01-27T04:23:56;68379.00;;;1.29;98.50
3844;BME280;1937;51.444;6.484;2024-01-27T04:26:24;68331.63;;;1.18;98.53
3844;BME280;1937;51.444;6.484;2024-01-27T04:28:50;68376.09;;;1.17;98.85
3844;BME280;1937;51.444;6.484;2024-01-27T04:31:17;68502.69;;;1.19;99.11
3844;BME280;1937;51.444;6.484;2024-01-27T04:33:44;68412.59;;;1.20;99.20
3844;BME280;1937;51.444;6.484;2024-01-27T04:36:10;68401.63;;;1.31;99.06
3844;BME280;1937;51.444;6.484;2024-01-27T04:38:37;68410.28;;;1.34;98.67
3844;BME280;1937;51.444;6.484;2024-01-27T04:41:04;68490.00;;;1.43;98.65
3844;BME280;1937;51.444;6.484;2024-01-27T04:43:32;68418.75;;;1.39;98.69
3844;BME280;1937;51.444;6.484;2024-01-27T04:45:58;68419.44;;;1.46;98.50
3844;BME280;1937;51.444;6.484;2024-01-27T04:48:25;68427.28;;;1.35;98.58
3844;BME280;1937;51.444;6.484;2024-01-27T04:50:51;68425.22;;;1.29;98.83
3844;BME280;1937;51.444;6.484;2024-01-27T04:53:19;68359.84;;;1.14;98.50
3844;BME280;1937;51.444;6.484;2024-01-27T04:55:45;68360.28;;;1.17;98.68
3844;BME280;1937;51.444;6.484;2024-01-27T04:58:12;68526.19;;;1.03;98.32
3844;BME280;1937;51.444;6.484;2024-01-27T05:00:40;68431.22;;;1.26;98.33
3844;BME280;1937;51.444;6.484;2024-01-27T05:03:07;68388.78;;;1.33;98.33
3844;BME280;1937;51.444;6.484;2024-01-27T05:05:40;68327.75;;;1.19;98.41
3844;BME280;1937;51.444;6.484;2024-01-27T05:08:07;68380.97;;;1.19;98.31
3844;BME280;1937;51.444;6.484;2024-01-27T05:10:36;68351.22;;;1.11;98.58
3844;BME280;1937;51.444;6.484;2024-01-27T05:13:03;68330.50;;;1.09;98.71
3844;BME280;1937;51.444;6.484;2024-01-27T05:15:30;68326.69;;;1.01;98.25
3844;BME280;1937;51.444;6.484;2024-01-27T05:17:58;68361.00;;;1.00;98.77
3844;BME280;1937;51.444;6.484;2024-01-27T05:20:24;68420.06;;;0.99;98.68
3844;BME280;1937;51.444;6.484;2024-01-27T05:22:51;68390.75;;;1.08;98.92
3844;BME280;1937;51.444;6.484;2024-01-27T05:25:18;68382.94;;;0.95;98.83
3844;BME280;1937;51.444;6.484;2024-01-27T05:27:44;68382.03;;;0.99;98.81
3844;BME280;1937;51.444;6.484;2024-01-27T05:30:11;68473.13;;;1.01;99.42
3844;BME280;1937;51.444;6.484;2024-01-27T05:32:38;68445.03;;;1.11;98.94
3844;BME280;1937;51.444;6.484;2024-01-27T05:35:07;68431.16;;;1.10;99.27
3844;BME280;1937;51.444;6.484;2024-01-27T05:37:34;68459.75;;;1.17;98.63
3844;BME280;1937;51.444;6.484;2024-01-27T05:40:01;68429.50;;;1.15;98.54
3844;BME280;1937;51.444;6.484;2024-01-27T05:42:28;68365.91;;;1.02;98.63
3844;BME280;1937;51.444;6.484;2024-01-27T05:44:54;68436.84;;;1.11;98.83
3844;BME280;1937;51.444;6.484;2024-01-27T05:47:21;68514.91;;;0.93;98.46
3844;BME280;1937;51.444;6.484;2024-01-27T05:49:48;68431.38;;;1.23;98.70
3844;BME280;1937;51.444;6.484;2024-01-27T05:52:16;68338.56;;;1.11;98.44
3844;BME280;1937;51.444;6.484;2024-01-27T05:54:43;68416.13;;;1.08;98.60
3844;BME280;1937;51.444;6.484;2024-01-27T05:57:08;68378.78;;;1.15;98.44
3844;BME280;1937;51.444;6.484;2024-01-27T05:59:35;68421.56;;;1.19;98.22
3844;BME280;1937;51.444;6.484;2024-01-27T06:02:02;68449.28;;;1.21;98.24
3844;BME280;1937;51.444;6.484;2024-01-27T06:04:28;68520.72;;;1.24;98.17
3844;BME280;1937;51.444;6.484;2024-01-27T06:06:56;68443.03;;;1.20;98.43
3844;BME280;1937;51.444;6.484;2024-01-27T06:09:24;68466.13;;;1.25;97.93
3844;BME280;1937;51.444;6.484;2024-01-27T06:11:51;68486.41;;;1.25;98.33
3844;BME280;1937;51.444;6.484;2024-01-27T06:14:18;68386.81;;;1.18;97.73
3844;BME280;1937;51.444;6.484;2024-01-27T06:16:44;68331.03;;;1.18;97.87
3844;BME280;1937;51.444;6.484;2024-01-27T06:19:11;68368.81;;;1.13;98.01
3844;BME280;1937;51.444;6.484;2024-01-27T06:21:37;68381.91;;;1.16;98.37
3844;BME280;1937;51.444;6.484;2024-01-27T06:24:04;68379.13;;;1.11;97.99
3844;BME280;1937;51.444;6.484;2024-01-27T06:26:32;68426.97;;;1.15;98.46
3844;BME280;1937;51.444;6.484;2024-01-27T06:28:59;68445.91;;;1.16;98.25
3844;BME280;1937;51.444;6.484;2024-01-27T06:31:27;68407.59;;;1.12;98.42
3844;BME280;1937;51.444;6.484;2024-01-27T06:33:55;68420.53;;;1.16;98.22
3844;BME280;1937;51.444;6.484;2024-01-27T06:36:21;68451.88;;;1.13;98.30
3844;BME280;1937;51.444;6.484;2024-01-27T06:38:50;68414.06;;;1.02;98.50
3844;BME280;1937;51.444;6.484;2024-01-27T06:41:16;68422.03;;;1.13;98.51
3844;BME280;1937;51.444;6.484;2024-01-27T06:43:44;68435.69;;;1.25;97.94
3844;BME280;1937;51.444;6.484;2024-01-27T06:46:11;68477.03;;;1.23;97.89
3844;BME280;1937;51.444;6.484;2024-01-27T06:48:38;68399.31;;;1.20;97.74
3844;BME280;1937;51.444;6.484;2024-01-27T06:51:04;68432.56;;;1.24;97.90
3844;BME280;1937;51.444;6.484;2024-01-27T06:53:31;68380.28;;;1.12;98.10
3844;BME280;1937;51.444;6.484;2024-01-27T06:55:58;68372.38;;;1.16;98.05
3844;BME280;1937;51.444;6.484;2024-01-27T06:58:24;68414.13;;;1.17;97.76
3844;BME280;1937;51.444;6.484;2024-01-27T07:00:52;68349.09;;;0.99;97.85
3844;BME280;1937;51.444;6.484;2024-01-27T07:03:19;68400.91;;;1.08;97.95
3844;BME280;1937;51.444;6.484;2024-01-27T07:05:46;68363.44;;;0.94;98.22
3844;BME280;1937;51.444;6.484;2024-01-27T07:08:12;68417.56;;;1.14;98.34
3844;BME280;1937;51.444;6.484;2024-01-27T07:10:39;68402.69;;;1.10;97.97
3844;BME280;1937;51.444;6.484;2024-01-27T07:13:06;68390.72;;;1.17;98.13
3844;BME280;1937;51.444;6.484;2024-01-27T07:15:32;68441.69;;;1.21;98.37
3844;BME280;1937;51.444;6.484;2024-01-27T07:18:00;68533.88;;;1.18;98.04
3844;BME280;1937;51.444;6.484;2024-01-27T07:20:27;68467.03;;;1.21;98.06
3844;BME280;1937;51.444;6.484;2024-01-27T07:22:54;68421.72;;;1.17;98.47
3844;BME280;1937;51.444;6.484;2024-01-27T07:25:21;68433.03;;;1.18;97.97
3844;BME280;1937;51.444;6.484;2024-01-27T07:27:47;68514.25;;;1.34;97.99
3844;BME280;1937;51.444;6.484;2024-01-27T07:30:14;68489.31;;;1.36;97.81
3844;BME280;1937;51.444;6.484;2024-01-27T07:32:41;68518.09;;;1.41;98.14
3844;BME280;1937;51.444;6.484;2024-01-27T07:35:10;68502.47;;;1.54;97.49
3844;BME280;1937;51.444;6.484;2024-01-27T07:37:37;68488.44;;;1.55;97.74
3844;BME280;1937;51.444;6.484;2024-01-27T07:40:05;68520.25;;;1.54;97.91
3844;BME280;1937;51.444;6.484;2024-01-27T07:42:32;68488.44;;;1.55;97.36
3844;BME280;1937;51.444;6.484;2024-01-27T07:44:58;68546.75;;;1.63;97.28
3844;BME280;1937;51.444;6.484;2024-01-27T07:47:25;68455.47;;;1.55;97.19
3844;BME280;1937;51.444;6.484;2024-01-27T07:49:52;68526.19;;;1.59;97.22
3844;BME280;1937;51.444;6.484;2024-01-27T07:52:20;68478.06;;;1.65;97.10
3844;BME280;1937;51.444;6.484;2024-01-27T07:54:47;68433.44;;;1.69;96.94
3844;BME280;1937;51.444;6.484;2024-01-27T07:57:13;68465.91;;;1.75;96.99
3844;BME280;1937;51.444;6.484;2024-01-27T07:59:40;68462.88;;;1.81;96.86
3844;BME280;1937;51.444;6.484;2024-01-27T08:02:06;68456.97;;;1.76;96.37
3844;BME280;1937;51.444;6.484;2024-01-27T08:04:33;68412.97;;;1.71;96.31
3844;BME280;1937;51.444;6.484;2024-01-27T08:07:00;68402.03;;;1.72;96.59
3844;BME280;1937;51.444;6.484;2024-01-27T08:09:32;68442.59;;;1.81;96.36
3844;BME280;1937;51.444;6.484;2024-01-27T08:11:59;68439.66;;;1.93;96.13
3844;BME280;1937;51.444;6.484;2024-01-27T08:14:27;68432.84;;;1.83;96.22
3844;BME280;1937;51.444;6.484;2024-01-27T08:16:55;68455.72;;;2.14;95.49
3844;BME280;1937;51.444;6.484;2024-01-27T08:19:21;68738.66;;;2.49;98.05
3844;BME280;1937;51.444;6.484;2024-01-27T08:21:48;69025.50;;;3.46;95.57
3844;BME280;1937;51.444;6.484;2024-01-27T08:24:15;68694.44;;;4.54;88.76
3844;BME280;1937;51.444;6.484;2024-01-27T08:26:43;68309.75;;;5.20;84.11
3844;BME280;1937;51.444;6.484;2024-01-27T08:29:13;67988.34;;;5.51;81.26
3844;BME280;1937;51.444;6.484;2024-01-27T08:31:39;67992.25;;;6.20;77.67
3844;BME280;1937;51.444;6.484;2024-01-27T08:34:06;67808.63;;;6.47;76.20
3844;BME280;1937;51.444;6.484;2024-01-27T08:36:34;67751.50;;;6.55;74.72
3844;BME280;1937;51.444;6.484;2024-01-27T08:39:01;67700.00;;;6.52;75.37
3844;BME280;1937;51.444;6.484;2024-01-27T08:41:28;67721.28;;;6.86;74.17
3844;BME280;1937;51.444;6.484;2024-01-27T08:43:56;67742.41;;;6.80;73.43
3844;BME280;1937;51.444;6.484;2024-01-27T08:46:23;67618.13;;;7.06;72.56
3844;BME280;1937;51.444;6.484;2024-01-27T08:48:49;67631.69;;;7.22;71.96
3844;BME280;1937;51.444;6.484;2024-01-27T08:51:16;67642.38;;;7.18;70.32
3844;BME280;1937;51.444;6.484;2024-01-27T08:53:43;67693.06;;;8.04;69.92
3844;BME280;1937;51.444;6.484;2024-01-27T08:56:14;67656.31;;;7.94;69.26
3844;BME280;1937;51.444;6.484;2024-01-27T08:58:41;67590.97;;;8.00;68.62
3844;BME280;1937;51.444;6.484;2024-01-27T09:01:09;67573.72;;;7.94;68.22
3844;BME280;1937;51.444;6.484;2024-01-27T09:03:38;67596.31;;;7.98;68.98
3844;BME280;1937;51.444;6.484;2024-01-27T09:06:04;67607.09;;;8.16;69.00
3844;BME280;1937;51.444;6.484;2024-01-27T09:08:33;67655.78;;;8.45;67.89
3844;BME280;1937;51.444;6.484;2024-01-27T09:10:59;67650.91;;;8.65;66.72
3844;BME280;1937;51.444;6.484;2024-01-27T09:13:26;67691.66;;;8.85;67.07
3844;BME280;1937;51.444;6.484;2024-01-27T09:15:53;67542.09;;;8.35;67.44
3844;BME280;1937;51.444;6.484;2024-01-27T09:18:21;67649.53;;;8.77;66.25
3844;BME280;1937;51.444;6.484;2024-01-27T09:20:48;67625.38;;;8.81;66.59
3844;BME280;1937;51.444;6.484;2024-01-27T09:23:14;67671.25;;;8.89;66.25
3844;BME280;1937;51.444;6.484;2024-01-27T09:25:41;67633.56;;;8.88;66.95
3844;BME280;1937;51.444;6.484;2024-01-27T09:28:08;67610.56;;;8.70;65.88
3844;BME280;1937;51.444;6.484;2024-01-27T09:30:34;67391.91;;;7.54;68.83
3844;BME280;1937;51.444;6.484;2024-01-27T09:33:01;67425.63;;;7.38;71.08
3844;BME280;1937;51.444;6.484;2024-01-27T09:35:29;67481.78;;;7.74;70.98
3844;BME280;1937;51.444;6.484;2024-01-27T09:37:56;67461.41;;;7.78;70.13
3844;BME280;1937;51.444;6.484;2024-01-27T09:40:22;67384.56;;;7.34;71.28
3844;BME280;1937;51.444;6.484;2024-01-27T09:42:51;67287.53;;;6.76;73.13
3844;BME280;1937;51.444;6.484;2024-01-27T09:45:21;67421.41;;;7.19;72.32
3844;BME280;1937;51.444;6.484;2024-01-27T09:47:49;67398.25;;;6.92;73.41
3844;BME280;1937;51.444;6.484;2024-01-27T09:50:17;67404.19;;;7.02;73.23
3844;BME280;1937;51.444;6.484;2024-01-27T09:52:45;67449.06;;;7.01;74.61
3844;BME280;1937;51.444;6.484;2024-01-27T09:55:12;67389.69;;;6.72;74.08
3844;BME280;1937;51.444;6.484;2024-01-27T09:57:39;67424.94;;;6.71;74.94
3844;BME280;1937;51.444;6.484;2024-01-27T10:00:10;67473.69;;;6.47;75.87
3844;BME280;1937;51.444;6.484;2024-01-27T10:02:38;67331.09;;;6.58;75.19
3844;BME280;1937;51.444;6.484;2024-01-27T10:05:06;67554.94;;;6.75;75.69
3844;BME280;1937;51.444;6.484;2024-01-27T10:07:34;67465.66;;;6.84;75.44
3844;BME280;1937;51.444;6.484;2024-01-27T10:10:03;67512.28;;;7.14;75.14
3844;BME280;1937;51.444;6.484;2024-01-27T10:12:31;67483.59;;;7.24;74.70
3844;BME280;1937;51.444;6.484;2024-01-27T10:14:58;67528.88;;;7.48;73.68
3844;BME280;1937;51.444;6.484;2024-01-27T10:17:25;67504.22;;;7.51;73.67
3844;BME280;1937;51.444;6.484;2024-01-27T10:20:00;67571.38;;;7.80;73.15
3844;BME280;1937;51.444;6.484;2024-01-27T10:22:28;67609.00;;;7.82;72.56
3844;BME280;1937;51.444;6.484;2024-01-27T10:24:55;67658.38;;;8.27;72.06
3844;BME280;1937;51.444;6.484;2024-01-27T10:27:23;67729.03;;;8.66;70.53
3844;BME280;1937;51.444;6.484;2024-01-27T10:29:53;67699.31;;;8.74;70.24
3844;BME280;1937;51.444;6.484;2024-01-27T10:32:20;67866.84;;;9.76;67.74
3844;BME280;1937;51.444;6.484;2024-01-27T10:34:49;67813.88;;;9.73;67.50
3844;BME280;1937;51.444;6.484;2024-01-27T10:37:15;67791.34;;;9.84;66.98
3844;BME280;1937;51.444;6.484;2024-01-27T10:39:42;67790.16;;;9.72;66.60
3844;BME280;1937;51.444;6.484;2024-01-27T10:42:10;67837.81;;;9.60;66.79
3844;BME280;1937;51.444;6.484;2024-01-27T10:44:39;67754.19;;;9.61;67.21
3844;BME280;1937;51.444;6.484;2024-01-27T10:47:09;67771.59;;;9.94;65.15
3844;BME280;1937;51.444;6.484;2024-01-27T10:49:43;67726.03;;;9.55;65.99
3844;BME280;1937;51.444;6.484;2024-01-27T10:52:11;67747.31;;;9.60;67.15
3844;BME280;1937;51.444;6.484;2024-01-27T10:54:41;67729.44;;;9.64;65.81
3844;BME280;1937;51.444;6.484;2024-01-27T10:57:09;67741.09;;;9.63;66.25
3844;BME280;1937;51.444;6.484;2024-01-27T10:59:38;67729.31;;;9.71;66.71
3844;BME280;1937;51.444;6.484;2024-01-27T11:02:07;67803.38;;;9.97;66.77
3844;BME280;1937;51.444;6.484;2024-01-27T11:04:38;67819.78;;;10.11;65.88
3844;BME280;1937;51.444;6.484;2024-01-27T11:07:05;67899.09;;;10.71;64.28
3844;BME280;1937;51.444;6.484;2024-01-27T11:09:34;67891.59;;;10.80;64.40
3844;BME280;1937;51.444;6.484;2024-01-27T11:12:03;67946.03;;;11.16;63.14
3844;BME280;1937;51.444;6.484;2024-01-27T11:14:30;67934.69;;;11.31;61.82
3844;BME280;1937;51.444;6.484;2024-01-27T11:16:58;67924.50;;;11.24;62.20
3844;BME280;1937;51.444;6.484;2024-01-27T11:19:25;68042.94;;;11.75;61.50
3844;BME280;1937;51.444;6.484;2024-01-27T11:21:59;67985.72;;;11.57;60.65
3844;BME280;1937;51.444;6.484;2024-01-27T11:24:26;67991.81;;;11.94;60.83
3844;BME280;1937;51.444;6.484;2024-01-27T11:27:00;67909.81;;;11.45;60.95
3844;BME280;1937;51.444;6.484;2024-01-27T11:29:27;67853.38;;;11.21;60.42
3844;BME280;1937;51.444;6.484;2024-01-27T11:31:55;67795.97;;;10.89;62.29
3844;BME280;1937;51.444;6.484;2024-01-27T11:34:23;67681.22;;;10.25;63.03
3844;BME280;1937;51.444;6.484;2024-01-27T11:36:50;67642.06;;;10.02;64.33
3844;BME280;1937;51.444;6.484;2024-01-27T11:39:24;67701.56;;;10.27;64.26
3844;BME280;1937;51.444;6.484;2024-01-27T11:41:51;67669.50;;;10.26;63.56
3844;BME280;1937;51.444;6.484;2024-01-27T11:44:18;67716.28;;;10.33;64.92
3844;BME280;1937;51.444;6.484;2024-01-27T11:46:45;67820.22;;;10.63;64.33
3844;BME280;1937;51.444;6.484;2024-01-27T11:49:14;67788.38;;;10.82;63.33
3844;BME280;1937;51.444;6.484;2024-01-27T11:51:43;67780.44;;;10.73;63.53
3844;BME280;1937;51.444;6.484;2024-01-27T11:54:10;67798.78;;;10.87;62.19
3844;BME280;1937;51.444;6.484;2024-01-27T11:56:37;67834.44;;;11.18;63.30
3844;BME280;1937;51.444;6.484;2024-01-27T11:59:03;67894.81;;;11.41;61.56
3844;BME280;1937;51.444;6.484;2024-01-27T12:01:30;67919.03;;;11.60;61.03
3844;BME280;1937;51.444;6.484;2024-01-27T12:03:57;67843.75;;;11.37;60.28
3844;BME280;1937;51.444;6.484;2024-01-27T12:06:24;67814.16;;;11.20;61.05
3844;BME280;1937;51.444;6.484;2024-01-27T12:08:54;67747.88;;;10.87;61.74
3844;BME280;1937;51.444;6.484;2024-01-27T12:11:22;67828.19;;;11.32;61.73
3844;BME280;1937;51.444;6.484;2024-01-27T12:13:49;67769.84;;;10.97;63.03
3844;BME280;1937;51.444;6.484;2024-01-27T12:16:16;67819.00;;;11.06;63.00
3844;BME280;1937;51.444;6.484;2024-01-27T12:18:43;67745.06;;;10.78;62.50
3844;BME280;1937;51.444;6.484;2024-01-27T12:21:10;67687.13;;;10.46;62.88
3844;BME280;1937;51.444;6.484;2024-01-27T12:23:49;67605.34;;;10.08;63.59
3844;BME280;1937;51.444;6.484;2024-01-27T12:26:17;67623.66;;;9.95;65.03
3844;BME280;1937;51.444;6.484;2024-01-27T12:28:45;67594.00;;;9.74;65.51
3844;BME280;1937;51.444;6.484;2024-01-27T12:31:13;67537.38;;;9.58;65.61
3844;BME280;1937;51.444;6.484;2024-01-27T12:33:48;67589.50;;;9.52;66.16
3844;BME280;1937;51.444;6.484;2024-01-27T12:36:17;67560.53;;;9.58;65.96
3844;BME280;1937;51.444;6.484;2024-01-27T12:38:46;67576.13;;;9.67;66.02
3844;BME280;1937;51.444;6.484;2024-01-27T12:41:13;67584.69;;;9.66;65.56
3844;BME280;1937;51.444;6.484;2024-01-27T12:43:41;67555.78;;;9.27;66.32
3844;BME280;1937;51.444;6.484;2024-01-27T12:46:08;67508.41;;;9.26;66.32
3844;BME280;1937;51.444;6.484;2024-01-27T12:48:36;67516.22;;;9.20;67.38
3844;BME280;1937;51.444;6.484;2024-01-27T12:51:03;67628.75;;;9.35;66.95
3844;BME280;1937;51.444;6.484;2024-01-27T12:53:30;67421.16;;;9.04;66.43
3844;BME280;1937;51.444;6.484;2024-01-27T12:55:56;67502.25;;;9.08;67.13
3844;BME280;1937;51.444;6.484;2024-01-27T12:58:23;67447.41;;;9.04;66.21
3844;BME280;1937;51.444;6.484;2024-01-27T13:00:52;67470.78;;;8.91;66.89
3844;BME280;1937;51.444;6.484;2024-01-27T13:03:18;67406.81;;;8.62;67.95
3844;BME280;1937;51.444;6.484;2024-01-27T13:05:45;67454.78;;;8.91;67.70
3844;BME280;1937;51.444;6.484;2024-01-27T13:08:12;67525.06;;;8.83;67.52
3844;BME280;1937;51.444;6.484;2024-01-27T13:10:38;67507.97;;;9.08;67.28
3844;BME280;1937;51.444;6.484;2024-01-27T13:13:05;67511.47;;;9.11;66.61
3844;BME280;1937;51.444;6.484;2024-01-27T13:15:32;67479.66;;;8.92;66.78
3844;BME280;1937;51.444;6.484;2024-01-27T13:18:00;67474.88;;;8.95;67.42
3844;BME280;1937;51.444;6.484;2024-01-27T13:20:26;67474.63;;;8.97;66.52
3844;BME280;1937;51.444;6.484;2024-01-27T13:22:53;67421.81;;;8.82;66.76
3844;BME280;1937;51.444;6.484;2024-01-27T13:25:19;67457.63;;;8.89;66.60
3844;BME280;1937;51.444;6.484;2024-01-27T13:27:46;67448.25;;;8.92;66.35
3844;BME280;1937;51.444;6.484;2024-01-27T13:30:13;67453.88;;;8.88;66.27
3844;BME280;1937;51.444;6.484;2024-01-27T13:32:40;67436.31;;;8.68;67.16